Time;durP1;ratioP1;P1;durP2;ratioP2;P2;SDS_P1;SDS_P2;PMS_P1;PMS_P2;Temp;Humidity;BMP_temperature;BMP_pressure;BME280_temperature;BME280_humidity;BME280_pressure;Samples;Min_cycle;Max_cycle;Signal;HPM_P1;HPM_P2
2021/08/25 00:02:24;;;;;;;3.27;1.50;;;;;;;;;;5099100;28;20255;-63
2021/08/25 00:04:52;;;;;;;1.73;1.57;;;;;;;;;;5099063;28;20230;-63
2021/08/25 00:07:20;;;;;;;2.90;1.60;;;;;;;;;;5099556;28;20205;-62
2021/08/25 00:09:48;;;;;;;3.70;1.50;;;;;;;;;;5098969;28;20205;-63
2021/08/25 00:12:16;;;;;;;2.50;1.63;;;;;;;;;;5099355;28;20216;-63
2021/08/25 00:14:44;;;;;;;2.37;1.57;;;;;;;;;;5119464;28;20333;-63
2021/08/25 00:17:13;;;;;;;1.53;1.43;;;;;;;;;;5119225;28;20211;-62
2021/08/25 00:19:42;;;;;;;2.90;1.60;;;;;;;;;;5119645;28;20246;-62
2021/08/25 00:22:11;;;;;;;2.23;1.80;;;;;;;;;;5118869;28;20321;-61
2021/08/25 00:24:39;;;;;;;2.90;1.73;;;;;;;;;;5119292;28;20301;-61
2021/08/25 00:27:07;;;;;;;1.67;1.57;;;;;;;;;;5103097;28;20209;-63
2021/08/25 00:29:35;;;;;;;2.90;1.33;;;;;;;;;;5099088;28;20202;-63
2021/08/25 00:32:03;;;;;;;1.83;1.73;;;;;;;;;;5098806;28;20665;-63
2021/08/25 00:34:32;;;;;;;4.20;1.63;;;;;;;;;;5099019;28;20240;-62
2021/08/25 00:37:00;;;;;;;1.47;1.33;;;;;;;;;;5098339;28;20205;-62
2021/08/25 00:39:28;;;;;;;1.90;1.70;;;;;;;;;;5098554;28;20225;-62
2021/08/25 00:41:56;;;;;;;2.77;1.90;;;;;;;;;;5098374;28;20210;-63
2021/08/25 00:44:24;;;;;;;1.80;1.27;;;;;;;;;;5098433;28;20711;-63
2021/08/25 00:46:52;;;;;;;3.20;1.90;;;;;;;;;;5098693;28;20202;-62
2021/08/25 00:49:21;;;;;;;2.90;1.80;;;;;;;;;;5102079;28;20207;-61
2021/08/25 00:51:50;;;;;;;1.60;1.50;;;;;;;;;;5099599;28;20638;-61
2021/08/25 00:54:19;;;;;;;1.90;1.77;;;;;;;;;;5098484;28;20312;-61
2021/08/25 00:56:49;;;;;;;2.10;1.80;;;;;;;;;;5098411;28;20201;-61
2021/08/25 00:59:18;;;;;;;1.80;1.70;;;;;;;;;;5098224;28;20229;-61
2021/08/25 01:01:57;;;;;;;2.07;1.63;;;;;;;;;;5105067;28;20209;-61
2021/08/25 01:04:29;;;;;;;2.57;1.90;;;;;;;;;;5118448;28;20224;-61
2021/08/25 01:06:59;;;;;;;1.53;1.43;;;;;;;;;;5118456;28;20223;-61
2021/08/25 01:09:27;;;;;;;1.97;1.77;;;;;;;;;;5118317;28;20264;-61
2021/08/25 01:11:59;;;;;;;2.57;1.40;;;;;;;;;;5118593;28;20663;-61
2021/08/25 01:14:28;;;;;;;1.80;1.70;;;;;;;;;;5118298;28;20580;-61
2021/08/25 01:16:57;;;;;;;1.40;1.30;;;;;;;;;;5118424;28;20205;-61
2021/08/25 01:19:26;;;;;;;3.20;1.70;;;;;;;;;;5118330;28;20224;-61
2021/08/25 01:21:55;;;;;;;3.00;1.60;;;;;;;;;;5117228;28;20234;-61
2021/08/25 01:24:25;;;;;;;1.80;1.70;;;;;;;;;;5118100;28;20224;-61
2021/08/25 01:26:54;;;;;;;3.87;1.37;;;;;;;;;;5104340;28;20209;-61
2021/08/25 01:29:25;;;;;;;2.30;1.40;;;;;;;;;;5098042;28;20205;-61
2021/08/25 01:31:53;;;;;;;2.93;1.80;;;;;;;;;;5097928;28;20209;-61
2021/08/25 01:34:21;;;;;;;3.03;1.67;;;;;;;;;;5097913;28;20228;-61
2021/08/25 01:36:49;;;;;;;3.80;1.80;;;;;;;;;;5097672;28;20205;-61
2021/08/25 01:39:18;;;;;;;2.10;1.80;;;;;;;;;;5097375;28;20259;-61
2021/08/25 01:41:46;;;;;;;1.67;1.57;;;;;;;;;;5097810;28;20206;-61
2021/08/25 01:44:14;;;;;;;2.53;1.53;;;;;;;;;;5097973;28;20221;-61
2021/08/25 01:46:44;;;;;;;1.90;1.80;;;;;;;;;;5097793;28;20212;-61
2021/08/25 01:49:12;;;;;;;1.93;1.60;;;;;;;;;;5099822;28;20234;-61
2021/08/25 01:51:41;;;;;;;2.07;1.67;;;;;;;;;;5099606;28;20375;-61
2021/08/25 01:54:10;;;;;;;3.27;2.00;;;;;;;;;;5108599;28;20216;-61
2021/08/25 01:56:38;;;;;;;2.73;1.60;;;;;;;;;;5099330;28;20711;-61
2021/08/25 01:59:07;;;;;;;2.50;2.00;;;;;;;;;;5097346;28;20700;-61
2021/08/25 02:01:35;;;;;;;1.70;1.60;;;;;;;;;;5097314;28;20687;-61
2021/08/25 02:04:05;;;;;;;1.57;1.47;;;;;;;;;;5097583;28;20232;-61
2021/08/25 02:06:33;;;;;;;1.67;1.57;;;;;;;;;;5097482;28;20235;-61
2021/08/25 02:09:01;;;;;;;2.13;1.83;;;;;;;;;;5097524;28;20673;-61
2021/08/25 02:11:29;;;;;;;1.80;1.70;;;;;;;;;;5104621;28;20635;-60
2021/08/25 02:13:57;;;;;;;5.30;1.77;;;;;;;;;;5117666;28;20285;-61
2021/08/25 02:16:24;;;;;;;3.40;2.10;;;;;;;;;;5117950;28;20238;-61
2021/08/25 02:18:53;;;;;;;2.10;2.00;;;;;;;;;;5117693;28;20267;-60
2021/08/25 02:21:23;;;;;;;2.47;2.23;;;;;;;;;;5117400;28;20232;-61
2021/08/25 02:23:51;;;;;;;2.10;1.90;;;;;;;;;;5117367;28;20704;-61
2021/08/25 02:26:19;;;;;;;1.77;1.67;;;;;;;;;;5097320;28;20683;-61
2021/08/25 02:28:47;;;;;;;2.43;1.87;;;;;;;;;;5097046;28;20599;-61
2021/08/25 02:31:16;;;;;;;1.97;1.70;;;;;;;;;;5097503;28;20212;-61
2021/08/25 02:33:44;;;;;;;6.93;2.10;;;;;;;;;;5100140;28;20222;-61
2021/08/25 02:36:13;;;;;;;3.57;1.70;;;;;;;;;;5100876;28;20714;-62
2021/08/25 02:38:42;;;;;;;2.53;2.20;;;;;;;;;;5100924;28;20649;-63
2021/08/25 02:41:11;;;;;;;4.37;2.50;;;;;;;;;;5101204;28;20273;-63
2021/08/25 02:43:40;;;;;;;3.03;2.27;;;;;;;;;;5100897;28;20205;-63
2021/08/25 02:46:08;;;;;;;2.23;2.03;;;;;;;;;;5100602;28;20209;-63
2021/08/25 02:48:36;;;;;;;2.20;2.10;;;;;;;;;;5101004;28;20269;-63
2021/08/25 02:51:04;;;;;;;2.80;2.60;;;;;;;;;;5106475;28;20238;-60
2021/08/25 02:53:32;;;;;;;2.37;2.17;;;;;;;;;;5100661;28;20221;-61
2021/08/25 02:56:02;;;;;;;3.83;2.33;;;;;;;;;;5100748;28;20671;-63
2021/08/25 02:58:29;;;;;;;2.57;2.37;;;;;;;;;;5100487;28;20665;-63
2021/08/25 03:00:58;;;;;;;3.13;2.83;;;;;;;;;;5100452;28;20236;-63
2021/08/25 03:03:26;;;;;;;2.57;2.37;;;;;;;;;;5107579;28;20246;-60
2021/08/25 03:05:55;;;;;;;3.10;2.37;;;;;;;;;;5120315;28;20207;-63
2021/08/25 03:08:22;;;;;;;2.50;2.30;;;;;;;;;;5121114;28;20215;-63
2021/08/25 03:10:50;;;;;;;2.60;2.40;;;;;;;;;;5120490;28;20279;-63
2021/08/25 03:13:20;;;;;;;2.53;2.33;;;;;;;;;;5120942;28;20197;-63
2021/08/25 03:15:48;;;;;;;4.90;2.10;;;;;;;;;;5120340;28;20258;-63
2021/08/25 03:18:16;;;;;;;3.07;2.20;;;;;;;;;;5120931;28;20205;-62
2021/08/25 03:20:44;;;;;;;2.80;2.50;;;;;;;;;;5120176;28;20225;-62
2021/08/25 03:23:12;;;;;;;2.60;2.40;;;;;;;;;;5120671;28;20284;-63
2021/08/25 03:25:40;;;;;;;2.80;2.50;;;;;;;;;;5117221;28;20231;-62
2021/08/25 03:28:08;;;;;;;2.73;2.50;;;;;;;;;;5100029;28;20205;-62
2021/08/25 03:30:37;;;;;;;3.80;2.60;;;;;;;;;;5099966;28;20204;-62
2021/08/25 03:33:05;;;;;;;2.80;2.43;;;;;;;;;;5099902;28;20296;-62
2021/08/25 03:35:33;;;;;;;3.47;3.17;;;;;;;;;;5099694;28;20227;-60
2021/08/25 03:38:01;;;;;;;2.57;2.33;;;;;;;;;;5100033;28;20209;-60
2021/08/25 03:40:29;;;;;;;3.47;3.07;;;;;;;;;;5099608;28;20243;-63
2021/08/25 03:42:57;;;;;;;4.13;2.93;;;;;;;;;;5100081;28;20219;-60
2021/08/25 03:45:25;;;;;;;2.83;2.20;;;;;;;;;;5098904;28;20225;-60
2021/08/25 03:47:55;;;;;;;5.23;2.60;;;;;;;;;;5099578;28;20208;-63
2021/08/25 03:50:23;;;;;;;3.50;3.00;;;;;;;;;;5105718;28;20193;-63
2021/08/25 03:52:51;;;;;;;3.33;3.03;;;;;;;;;;5108385;28;20204;-60
2021/08/25 03:55:19;;;;;;;3.10;2.80;;;;;;;;;;5109478;28;20260;-60
2021/08/25 03:57:47;;;;;;;3.07;2.80;;;;;;;;;;5102903;28;20583;-60
2021/08/25 04:00:16;;;;;;;7.70;3.27;;;;;;;;;;5104250;28;20711;-62
2021/08/25 04:02:44;;;;;;;3.60;2.87;;;;;;;;;;5107775;28;20539;-62
2021/08/25 04:05:14;;;;;;;3.53;2.83;;;;;;;;;;5105077;28;20220;-62
2021/08/25 04:07:42;;;;;;;3.30;2.60;;;;;;;;;;5106486;28;20263;-62
2021/08/25 04:10:10;;;;;;;3.03;2.77;;;;;;;;;;5107444;28;20200;-62
2021/08/25 04:12:38;;;;;;;2.60;2.40;;;;;;;;;;5107043;28;20287;-62
2021/08/25 04:15:07;;;;;;;3.93;3.30;;;;;;;;;;5106824;28;20227;-63
2021/08/25 04:17:35;;;;;;;3.57;2.60;;;;;;;;;;5106904;28;20208;-60
2021/08/25 04:20:03;;;;;;;3.40;3.10;;;;;;;;;;5106916;28;20216;-60
2021/08/25 04:22:32;;;;;;;3.17;2.50;;;;;;;;;;5104926;28;20240;-62
2021/08/25 04:25:00;;;;;;;5.47;3.10;;;;;;;;;;5109258;28;20221;-62
2021/08/25 04:27:28;;;;;;;3.43;3.13;;;;;;;;;;5104769;28;20284;-62
2021/08/25 04:29:56;;;;;;;6.30;2.73;;;;;;;;;;5108082;28;20201;-60
2021/08/25 04:32:24;;;;;;;3.00;2.70;;;;;;;;;;5104761;28;20197;-62
2021/08/25 04:34:52;;;;;;;3.40;3.10;;;;;;;;;;5107431;28;20217;-62
2021/08/25 04:37:21;;;;;;;4.30;3.87;;;;;;;;;;5104389;28;20206;-60
2021/08/25 04:39:51;;;;;;;4.70;3.47;;;;;;;;;;5107233;28;20198;-60
2021/08/25 04:42:19;;;;;;;4.40;2.97;;;;;;;;;;5106821;28;20216;-60
2021/08/25 04:44:47;;;;;;;3.30;3.00;;;;;;;;;;5107231;28;20260;-60
2021/08/25 04:47:15;;;;;;;3.30;2.80;;;;;;;;;;5104936;28;20216;-63
2021/08/25 04:49:42;;;;;;;3.57;3.27;;;;;;;;;;5106550;28;20208;-63
2021/08/25 04:52:15;;;;;;;3.93;3.07;;;;;;;;;;5098336;28;20202;-61
2021/08/25 04:54:43;;;;;;;4.70;3.63;;;;;;;;;;5098219;28;20225;-61
2021/08/25 04:57:13;;;;;;;4.83;3.40;;;;;;;;;;5098464;28;20653;-61
2021/08/25 04:59:41;;;;;;;4.20;3.37;;;;;;;;;;5098107;28;20575;-61
2021/08/25 05:02:09;;;;;;;3.20;2.90;;;;;;;;;;5097977;28;20226;-62
2021/08/25 05:04:37;;;;;;;3.83;3.40;;;;;;;;;;5097624;28;20233;-64
2021/08/25 05:07:05;;;;;;;3.40;2.80;;;;;;;;;;5118591;27;20215;-63
2021/08/25 05:09:33;;;;;;;6.40;3.53;;;;;;;;;;5112934;28;20200;-60
2021/08/25 05:12:01;;;;;;;4.70;4.07;;;;;;;;;;5106317;28;20198;-61
2021/08/25 05:14:30;;;;;;;4.10;3.23;;;;;;;;;;5106502;28;20221;-69
2021/08/25 05:16:58;;;;;;;3.47;3.13;;;;;;;;;;5106676;28;20209;-61
2021/08/25 05:19:27;;;;;;;7.57;3.40;;;;;;;;;;5113101;28;20210;-64
2021/08/25 05:21:55;;;;;;;6.43;3.37;;;;;;;;;;5117683;28;20319;-63
2021/08/25 05:24:23;;;;;;;6.93;3.50;;;;;;;;;;5118359;28;20225;-63
2021/08/25 05:26:51;;;;;;;4.07;3.00;;;;;;;;;;5105018;28;20296;-63
2021/08/25 05:29:19;;;;;;;3.80;3.43;;;;;;;;;;5104994;28;20282;-64
2021/08/25 05:31:48;;;;;;;3.90;3.23;;;;;;;;;;5118295;28;20282;-64
2021/08/25 05:34:16;;;;;;;3.80;3.40;;;;;;;;;;5118332;28;20232;-62
2021/08/25 05:36:44;;;;;;;6.07;3.60;;;;;;;;;;5117974;28;20205;-61
2021/08/25 05:39:14;;;;;;;5.37;3.20;;;;;;;;;;5118100;28;20663;-62
2021/08/25 05:41:42;;;;;;;4.00;3.57;;;;;;;;;;5118188;28;20224;-62
2021/08/25 05:44:10;;;;;;;5.03;3.43;;;;;;;;;;5118379;28;20228;-61
2021/08/25 05:46:38;;;;;;;6.43;3.83;;;;;;;;;;5117708;28;20211;-62
2021/08/25 05:49:07;;;;;;;5.07;3.17;;;;;;;;;;5108718;28;20208;-61
2021/08/25 05:51:35;;;;;;;6.67;3.73;;;;;;;;;;5105898;28;20200;-62
2021/08/25 05:54:03;;;;;;;5.47;3.30;;;;;;;;;;5105431;28;20602;-61
2021/08/25 05:56:31;;;;;;;3.80;3.50;;;;;;;;;;5102636;28;20554;-61
2021/08/25 05:58:59;;;;;;;7.93;3.53;;;;;;;;;;5097688;28;20700;-61
2021/08/25 06:01:27;;;;;;;4.23;3.63;;;;;;;;;;5097242;28;20251;-61
2021/08/25 06:03:55;;;;;;;4.40;3.80;;;;;;;;;;5102631;28;20223;-61
2021/08/25 06:06:29;;;;;;;5.03;4.37;;;;;;;;;;5117725;28;20200;-61
2021/08/25 06:08:57;;;;;;;4.80;3.63;;;;;;;;;;5121229;28;20207;-61
2021/08/25 06:11:25;;;;;;;8.20;3.97;;;;;;;;;;5100856;28;20737;-60
2021/08/25 06:13:53;;;;;;;7.37;3.90;;;;;;;;;;5100726;28;20225;-60
2021/08/25 06:16:21;;;;;;;6.07;3.63;;;;;;;;;;5100691;28;20281;-60
2021/08/25 06:18:49;;;;;;;4.10;3.43;;;;;;;;;;5107963;28;20652;-61
2021/08/25 06:21:18;;;;;;;4.40;4.00;;;;;;;;;;5105788;28;20225;-60
2021/08/25 06:23:47;;;;;;;6.63;4.07;;;;;;;;;;5112724;28;20217;-60
2021/08/25 06:26:16;;;;;;;5.60;4.17;;;;;;;;;;5106902;28;20280;-61
2021/08/25 06:28:44;;;;;;;5.13;3.87;;;;;;;;;;5111598;28;20197;-61
2021/08/25 06:31:12;;;;;;;4.83;3.63;;;;;;;;;;5108186;28;20189;-61
2021/08/25 06:33:40;;;;;;;4.20;3.50;;;;;;;;;;5108707;28;20605;-60
2021/08/25 06:36:07;;;;;;;4.47;3.50;;;;;;;;;;5107489;28;20625;-60
2021/08/25 06:38:35;;;;;;;4.53;3.80;;;;;;;;;;5109613;28;20208;-61
2021/08/25 06:41:05;;;;;;;4.30;3.73;;;;;;;;;;5121380;28;20222;-61
2021/08/25 06:43:33;;;;;;;4.00;3.60;;;;;;;;;;5110861;28;20205;-61
2021/08/25 06:46:02;;;;;;;6.27;3.77;;;;;;;;;;5108746;28;20203;-61
2021/08/25 06:48:30;;;;;;;5.40;3.70;;;;;;;;;;5113701;28;20205;-60
2021/08/25 06:50:58;;;;;;;7.30;3.67;;;;;;;;;;5111994;28;20198;-62
2021/08/25 06:53:26;;;;;;;3.67;3.33;;;;;;;;;;5107680;28;20201;-63
2021/08/25 06:55:54;;;;;;;5.73;4.00;;;;;;;;;;5112923;28;20192;-63
2021/08/25 06:58:25;;;;;;;5.17;3.43;;;;;;;;;;5108670;28;20200;-63
2021/08/25 07:00:52;;;;;;;3.57;3.27;;;;;;;;;;5108535;28;20200;-62
2021/08/25 07:03:21;;;;;;;4.23;3.63;;;;;;;;;;5107525;28;20248;-61
2021/08/25 07:05:49;;;;;;;4.47;3.83;;;;;;;;;;5108883;28;20579;-61
2021/08/25 07:08:17;;;;;;;4.67;3.40;;;;;;;;;;5106781;28;20686;-61
2021/08/25 07:10:45;;;;;;;3.93;3.40;;;;;;;;;;5109077;28;20289;-63
2021/08/25 07:13:13;;;;;;;5.67;3.50;;;;;;;;;;5108296;28;20555;-63
2021/08/25 07:15:42;;;;;;;4.80;3.50;;;;;;;;;;5107977;28;20562;-61
2021/08/25 07:18:10;;;;;;;5.70;3.73;;;;;;;;;;5106126;28;20205;-60
2021/08/25 07:20:44;;;;;;;5.67;4.20;;;;;;;;;;5104597;28;20204;-60
2021/08/25 07:23:12;;;;;;;5.67;3.57;;;;;;;;;;5108720;28;20217;-61
2021/08/25 07:25:40;;;;;;;4.00;2.93;;;;;;;;;;5107612;27;20221;-63
2021/08/25 07:28:08;;;;;;;5.43;3.77;;;;;;;;;;5099507;28;20566;-67
2021/08/25 07:30:36;;;;;;;3.83;3.10;;;;;;;;;;5100079;28;20212;-67
2021/08/25 07:33:11;;;;;;;5.17;3.30;;;;;;;;;;5099740;28;20255;-64
2021/08/25 07:35:39;;;;;;;6.63;3.07;;;;;;;;;;5099749;28;20220;-66
2021/08/25 07:38:07;;;;;;;4.37;3.40;;;;;;;;;;5100091;28;20210;-66
2021/08/25 07:40:35;;;;;;;4.80;3.33;;;;;;;;;;5099899;28;20202;-62
2021/08/25 07:43:04;;;;;;;3.93;3.13;;;;;;;;;;5100026;28;20225;-62
2021/08/25 07:45:34;;;;;;;3.53;3.23;;;;;;;;;;5099799;28;20225;-62
2021/08/25 07:48:02;;;;;;;4.43;3.30;;;;;;;;;;5099923;28;20205;-63
2021/08/25 07:50:32;;;;;;;3.87;3.50;;;;;;;;;;5109431;28;20200;-62
2021/08/25 07:53:00;;;;;;;3.90;3.50;;;;;;;;;;5107915;28;20679;-62
2021/08/25 07:55:28;;;;;;;5.03;3.40;;;;;;;;;;5112165;28;20224;-61
2021/08/25 07:57:56;;;;;;;4.87;3.73;;;;;;;;;;5119732;28;20219;-61
2021/08/25 08:00:24;;;;;;;6.03;3.77;;;;;;;;;;5119698;28;20219;-62
2021/08/25 08:02:52;;;;;;;5.57;3.63;;;;;;;;;;5119438;28;20229;-62
2021/08/25 08:05:21;;;;;;;5.43;3.87;;;;;;;;;;5119456;27;20225;-62
2021/08/25 08:07:50;;;;;;;4.37;3.10;;;;;;;;;;5119844;28;20273;-62
2021/08/25 08:10:18;;;;;;;4.03;3.60;;;;;;;;;;5119562;28;20208;-63
2021/08/25 08:12:46;;;;;;;4.33;3.73;;;;;;;;;;5119542;28;20674;-62
2021/08/25 08:15:14;;;;;;;4.30;3.60;;;;;;;;;;5119639;28;20224;-62
2021/08/25 08:17:45;;;;;;;4.30;3.73;;;;;;;;;;5119391;28;20215;-63
2021/08/25 08:20:13;;;;;;;3.77;3.23;;;;;;;;;;5119296;28;20205;-62
2021/08/25 08:22:41;;;;;;;4.43;3.17;;;;;;;;;;5119224;28;20240;-62
2021/08/25 08:25:11;;;;;;;4.37;3.73;;;;;;;;;;5119526;28;20252;-62
2021/08/25 08:27:39;;;;;;;3.63;3.33;;;;;;;;;;5098783;28;20216;-62
2021/08/25 08:30:07;;;;;;;5.13;3.40;;;;;;;;;;5098567;28;20209;-62
2021/08/25 08:32:35;;;;;;;4.17;3.23;;;;;;;;;;5098985;28;20201;-62
2021/08/25 08:35:04;;;;;;;4.67;3.50;;;;;;;;;;5098511;28;20228;-62
2021/08/25 08:37:32;;;;;;;5.67;3.63;;;;;;;;;;5099015;28;20210;-62
2021/08/25 08:40:00;;;;;;;5.93;3.67;;;;;;;;;;5098515;28;20276;-63
2021/08/25 08:42:30;;;;;;;4.70;3.43;;;;;;;;;;5098501;28;20788;-63
2021/08/25 08:44:58;;;;;;;3.67;3.20;;;;;;;;;;5098562;28;20403;-62
2021/08/25 08:47:27;;;;;;;3.33;2.73;;;;;;;;;;5098480;28;20263;-60
2021/08/25 08:49:56;;;;;;;6.97;3.23;;;;;;;;;;5104356;28;20213;-60
2021/08/25 08:52:25;;;;;;;4.37;3.30;;;;;;;;;;5098267;28;20585;-60
2021/08/25 08:54:54;;;;;;;5.57;3.40;;;;;;;;;;5098144;28;20268;-60
2021/08/25 08:57:22;;;;;;;4.03;2.80;;;;;;;;;;5098369;28;20205;-60
2021/08/25 08:59:52;;;;;;;6.27;3.40;;;;;;;;;;5097894;28;20206;-60
2021/08/25 09:02:37;;;;;;;4.50;3.87;;;;;;;;;;5098051;28;20704;-60
2021/08/25 09:05:19;;;;;;;3.43;3.13;;;;;;;;;;5106711;28;20227;-60
2021/08/25 09:07:48;;;;;;;3.97;3.10;;;;;;;;;;5118319;28;20209;-60
2021/08/25 09:10:21;;;;;;;2.97;2.60;;;;;;;;;;5118784;28;20233;-60
2021/08/25 09:12:49;;;;;;;3.97;3.60;;;;;;;;;;5118452;28;20193;-60
2021/08/25 09:15:22;;;;;;;3.77;2.80;;;;;;;;;;5118674;28;20230;-60
2021/08/25 09:17:57;;;;;;;3.87;3.17;;;;;;;;;;5118267;28;20201;-60
2021/08/25 09:20:25;;;;;;;3.00;2.70;;;;;;;;;;5118181;28;20205;-63
2021/08/25 09:23:06;;;;;;;4.60;3.10;;;;;;;;;;5118090;28;20282;-64
2021/08/25 09:25:35;;;;;;;4.57;3.23;;;;;;;;;;5115397;28;20225;-66
2021/08/25 09:28:04;;;;;;;5.03;3.33;;;;;;;;;;5098060;28;20216;-65
2021/08/25 09:30:50;;;;;;;4.37;3.37;;;;;;;;;;5098091;28;20205;-65
2021/08/25 09:33:18;;;;;;;3.17;2.40;;;;;;;;;;5098055;28;20204;-65
2021/08/25 09:35:47;;;;;;;6.57;3.10;;;;;;;;;;5097561;28;20225;-64
2021/08/25 09:38:18;;;;;;;3.00;2.77;;;;;;;;;;5097773;28;20201;-63
2021/08/25 09:40:47;;;;;;;6.60;3.27;;;;;;;;;;5097565;28;20209;-63
2021/08/25 09:43:28;;;;;;;3.50;2.77;;;;;;;;;;5097009;28;20223;-63
2021/08/25 09:46:18;;;;;;;3.50;3.17;;;;;;;;;;5097591;28;20210;-65
2021/08/25 09:48:48;;;;;;;4.77;2.67;;;;;;;;;;5094252;28;20209;-64
2021/08/25 09:51:17;;;;;;;3.03;2.73;;;;;;;;;;5103433;28;20209;-65
2021/08/25 09:53:46;;;;;;;3.40;3.10;;;;;;;;;;5098030;28;20226;-64
2021/08/25 09:56:21;;;;;;;5.40;2.97;;;;;;;;;;5104773;28;20193;-64
2021/08/25 09:58:49;;;;;;;4.63;2.67;;;;;;;;;;5104786;28;20196;-64
2021/08/25 10:01:18;;;;;;;3.40;3.10;;;;;;;;;;5102868;28;20563;-63
2021/08/25 10:03:48;;;;;;;5.17;2.53;;;;;;;;;;5104996;28;20639;-65
2021/08/25 10:06:17;;;;;;;6.27;3.17;;;;;;;;;;5103464;28;20387;-64
2021/08/25 10:08:45;;;;;;;4.90;2.77;;;;;;;;;;5104960;28;20208;-66
2021/08/25 10:11:13;;;;;;;3.77;2.60;;;;;;;;;;5103641;28;20652;-65
2021/08/25 10:13:42;;;;;;;4.70;3.00;;;;;;;;;;5107174;28;20262;-65
2021/08/25 10:16:11;;;;;;;3.20;2.90;;;;;;;;;;5102611;28;20677;-65
2021/08/25 10:18:41;;;;;;;5.80;3.47;;;;;;;;;;5105037;28;20204;-63
2021/08/25 10:21:27;;;;;;;3.33;3.03;;;;;;;;;;5102128;28;20240;-65
2021/08/25 10:24:05;;;;;;;3.57;3.20;;;;;;;;;;5104397;28;20226;-65
2021/08/25 10:26:33;;;;;;;4.57;3.00;;;;;;;;;;5107526;28;20193;-65
2021/08/25 10:29:02;;;;;;;3.77;2.77;;;;;;;;;;5104193;28;20210;-64
2021/08/25 10:31:49;;;;;;;4.20;3.10;;;;;;;;;;5104847;28;20251;-65
2021/08/25 10:34:18;;;;;;;3.57;3.27;;;;;;;;;;5103965;28;20247;-65
2021/08/25 10:36:46;;;;;;;5.50;3.13;;;;;;;;;;5105068;28;20247;-65
2021/08/25 10:39:28;;;;;;;4.47;3.40;;;;;;;;;;5102266;28;20624;-66
2021/08/25 10:41:58;;;;;;;2.90;2.70;;;;;;;;;;5095970;28;20203;-66
2021/08/25 10:44:53;;;;;;;2.80;2.37;;;;;;;;;;5096662;28;20223;-66
2021/08/25 10:47:41;;;;;;;3.97;2.70;;;;;;;;;;5063487;28;20247;-63
2021/08/25 10:50:10;;;;;;;5.07;2.97;;;;;;;;;;5103481;28;20288;-61
2021/08/25 10:52:38;;;;;;;4.60;3.00;;;;;;;;;;5096339;28;20206;-62
2021/08/25 10:55:06;;;;;;;3.03;2.73;;;;;;;;;;5100455;28;20226;-60
2021/08/25 10:57:35;;;;;;;3.47;2.97;;;;;;;;;;5100567;28;20288;-60
2021/08/25 11:00:10;;;;;;;2.93;2.63;;;;;;;;;;5100768;28;20209;-60
2021/08/25 11:02:38;;;;;;;4.07;3.20;;;;;;;;;;5100397;28;20256;-61
2021/08/25 11:05:07;;;;;;;3.33;3.03;;;;;;;;;;5100138;28;20230;-60
2021/08/25 11:07:41;;;;;;;4.93;2.97;;;;;;;;;;5099303;28;20698;-60
2021/08/25 11:10:09;;;;;;;3.93;3.03;;;;;;;;;;5100098;28;20206;-60
2021/08/25 11:12:44;;;;;;;3.13;2.50;;;;;;;;;;5103304;28;20284;-61
2021/08/25 11:15:12;;;;;;;3.43;2.57;;;;;;;;;;5120592;28;20595;-61
2021/08/25 11:17:41;;;;;;;5.43;2.97;;;;;;;;;;5120767;28;20229;-60
2021/08/25 11:20:09;;;;;;;4.23;2.80;;;;;;;;;;5120392;28;20248;-60
2021/08/25 11:22:38;;;;;;;3.23;2.93;;;;;;;;;;5120396;28;20243;-60
2021/08/25 11:25:07;;;;;;;3.27;2.60;;;;;;;;;;5120247;28;20602;-60
2021/08/25 11:27:36;;;;;;;3.53;2.73;;;;;;;;;;5099994;28;20205;-61
2021/08/25 11:30:15;;;;;;;3.97;2.40;;;;;;;;;;5100076;28;20206;-60
2021/08/25 11:32:54;;;;;;;5.10;2.67;;;;;;;;;;5109334;28;20720;-61
2021/08/25 11:35:24;;;;;;;3.03;2.73;;;;;;;;;;5118406;28;20223;-65
2021/08/25 11:37:53;;;;;;;11.03;2.90;;;;;;;;;;5120309;28;20697;-64
2021/08/25 11:40:23;;;;;;;5.10;2.27;;;;;;;;;;5119992;28;20677;-64
2021/08/25 11:42:51;;;;;;;4.43;2.50;;;;;;;;;;5120514;28;20201;-64
2021/08/25 11:45:22;;;;;;;5.37;3.67;;;;;;;;;;5117938;28;20232;-64
2021/08/25 11:47:51;;;;;;;2.80;2.50;;;;;;;;;;5114531;27;20285;-64
2021/08/25 11:50:20;;;;;;;4.10;3.00;;;;;;;;;;5104024;28;20205;-62
2021/08/25 11:52:48;;;;;;;4.47;2.80;;;;;;;;;;5107893;28;20207;-62
2021/08/25 11:55:17;;;;;;;3.47;2.77;;;;;;;;;;5102475;28;20235;-64
2021/08/25 11:57:46;;;;;;;2.70;2.50;;;;;;;;;;5099143;28;20212;-63
2021/08/25 12:00:15;;;;;;;2.87;2.57;;;;;;;;;;5099359;28;20213;-63
2021/08/25 12:02:58;;;;;;;3.37;2.53;;;;;;;;;;5099202;28;20641;-63
2021/08/25 12:05:28;;;;;;;2.50;2.30;;;;;;;;;;5103180;28;20228;-63
2021/08/25 12:08:06;;;;;;;2.77;2.53;;;;;;;;;;5104562;28;20212;-63
2021/08/25 12:10:35;;;;;;;3.00;2.70;;;;;;;;;;5099247;28;20212;-62
2021/08/25 12:13:04;;;;;;;3.10;2.90;;;;;;;;;;5098625;28;20208;-63
2021/08/25 12:15:44;;;;;;;5.90;3.07;;;;;;;;;;5101874;28;20226;-63
2021/08/25 12:18:14;;;;;;;2.87;2.67;;;;;;;;;;5099048;28;20297;-63
2021/08/25 12:20:43;;;;;;;4.63;3.00;;;;;;;;;;5098479;28;20211;-63
2021/08/25 12:23:12;;;;;;;3.50;3.00;;;;;;;;;;5106110;28;20214;-63
2021/08/25 12:25:42;;;;;;;4.03;3.03;;;;;;;;;;5104131;28;20592;-63
2021/08/25 12:28:11;;;;;;;2.77;2.40;;;;;;;;;;5098599;28;20599;-63
2021/08/25 12:30:40;;;;;;;3.37;2.60;;;;;;;;;;5098376;28;20211;-63
2021/08/25 12:33:10;;;;;;;4.63;3.17;;;;;;;;;;5098760;28;20603;-63
2021/08/25 12:35:41;;;;;;;3.03;2.83;;;;;;;;;;5108592;28;20245;-63
2021/08/25 12:38:09;;;;;;;3.53;2.80;;;;;;;;;;5118658;28;20237;-62
2021/08/25 12:40:37;;;;;;;4.70;2.70;;;;;;;;;;5112534;28;20211;-62
2021/08/25 12:43:05;;;;;;;3.47;2.50;;;;;;;;;;5098524;28;20271;-63
2021/08/25 12:45:33;;;;;;;2.63;2.43;;;;;;;;;;5097949;28;20242;-63
2021/08/25 12:48:01;;;;;;;4.50;2.57;;;;;;;;;;5098299;28;20265;-63
2021/08/25 12:50:29;;;;;;;2.57;2.37;;;;;;;;;;5099234;28;20216;-62
2021/08/25 12:52:58;;;;;;;3.20;2.90;;;;;;;;;;5097991;28;20303;-63
2021/08/25 12:55:26;;;;;;;4.43;2.53;;;;;;;;;;5098187;28;20229;-63
2021/08/25 12:57:54;;;;;;;3.70;2.87;;;;;;;;;;5098018;28;20242;-63
2021/08/25 13:00:22;;;;;;;4.37;2.97;;;;;;;;;;5098229;28;20203;-63
2021/08/25 13:02:51;;;;;;;3.17;2.60;;;;;;;;;;5104980;28;20205;-63
2021/08/25 13:05:19;;;;;;;2.60;2.40;;;;;;;;;;5117907;28;20239;-62
2021/08/25 13:07:48;;;;;;;5.40;2.70;;;;;;;;;;5118516;28;20206;-62
2021/08/25 13:10:17;;;;;;;4.50;3.07;;;;;;;;;;5118087;28;20580;-63
2021/08/25 13:12:45;;;;;;;2.70;2.50;;;;;;;;;;5118442;28;20281;-63
2021/08/25 13:15:13;;;;;;;2.60;2.40;;;;;;;;;;5118190;28;20221;-63
2021/08/25 13:17:41;;;;;;;4.07;2.63;;;;;;;;;;5117181;28;20211;-63
2021/08/25 13:20:09;;;;;;;3.27;2.53;;;;;;;;;;5117858;28;20211;-63
2021/08/25 13:22:37;;;;;;;3.00;2.70;;;;;;;;;;5117835;28;20234;-63
2021/08/25 13:25:06;;;;;;;2.53;2.33;;;;;;;;;;5117689;28;20315;-62
2021/08/25 13:27:35;;;;;;;2.90;2.50;;;;;;;;;;5098855;28;20224;-63
2021/08/25 13:30:04;;;;;;;2.80;2.60;;;;;;;;;;5097468;28;20215;-63
2021/08/25 13:32:32;;;;;;;2.70;2.50;;;;;;;;;;5097834;28;20212;-62
2021/08/25 13:35:00;;;;;;;2.83;2.63;;;;;;;;;;5097286;28;20221;-62
2021/08/25 13:37:28;;;;;;;2.90;2.60;;;;;;;;;;5097585;28;20297;-62
2021/08/25 13:40:00;;;;;;;2.80;2.47;;;;;;;;;;5097758;28;20212;-63
2021/08/25 13:42:28;;;;;;;3.50;2.70;;;;;;;;;;5097260;28;20288;-62
2021/08/25 13:44:58;;;;;;;3.77;2.40;;;;;;;;;;5097148;28;20229;-62
2021/08/25 13:47:26;;;;;;;2.90;2.33;;;;;;;;;;5097479;28;20214;-63
2021/08/25 13:49:53;;;;;;;2.27;2.07;;;;;;;;;;5102971;28;20204;-63
2021/08/25 13:52:21;;;;;;;2.60;2.30;;;;;;;;;;5097360;28;20697;-63
2021/08/25 13:54:49;;;;;;;2.27;2.03;;;;;;;;;;5097320;28;20232;-65
2021/08/25 13:57:17;;;;;;;2.47;2.27;;;;;;;;;;5097451;28;20202;-65
2021/08/25 13:59:46;;;;;;;2.50;2.30;;;;;;;;;;5096989;28;20689;-64
2021/08/25 14:02:15;;;;;;;4.80;2.30;;;;;;;;;;5097173;28;20572;-63
2021/08/25 14:04:44;;;;;;;3.00;2.20;;;;;;;;;;5097041;28;20230;-65
2021/08/25 14:07:12;;;;;;;2.63;2.33;;;;;;;;;;5097083;28;20228;-64
2021/08/25 14:09:39;;;;;;;2.10;1.80;;;;;;;;;;5096973;28;20596;-64
2021/08/25 14:12:07;;;;;;;2.23;2.03;;;;;;;;;;5097214;28;20207;-64
2021/08/25 14:14:36;;;;;;;2.83;2.10;;;;;;;;;;5116750;28;20230;-65
2021/08/25 14:17:04;;;;;;;2.40;2.20;;;;;;;;;;5117406;28;20202;-65
2021/08/25 14:19:33;;;;;;;3.97;2.67;;;;;;;;;;5117015;28;20282;-65
2021/08/25 14:22:01;;;;;;;3.27;2.27;;;;;;;;;;5117404;28;20242;-64
2021/08/25 14:24:29;;;;;;;2.33;2.13;;;;;;;;;;5117306;28;20306;-64
2021/08/25 14:26:57;;;;;;;2.63;2.43;;;;;;;;;;5103050;28;20607;-64
2021/08/25 14:29:25;;;;;;;2.53;2.30;;;;;;;;;;5099304;28;20203;-64
2021/08/25 14:31:54;;;;;;;2.23;2.03;;;;;;;;;;5100661;28;20214;-65
2021/08/25 14:34:21;;;;;;;2.20;2.00;;;;;;;;;;5100506;28;20594;-64
2021/08/25 14:36:51;;;;;;;2.87;2.33;;;;;;;;;;5100793;28;20201;-64
2021/08/25 14:39:19;;;;;;;2.50;2.30;;;;;;;;;;5100971;28;20296;-64
2021/08/25 14:41:47;;;;;;;2.70;2.50;;;;;;;;;;5100623;28;20705;-64
2021/08/25 14:44:15;;;;;;;3.00;2.47;;;;;;;;;;5100747;28;20311;-63
2021/08/25 14:46:43;;;;;;;2.80;2.60;;;;;;;;;;5100394;28;20232;-62
2021/08/25 14:49:11;;;;;;;4.40;2.47;;;;;;;;;;5102827;28;20206;-63
2021/08/25 14:51:39;;;;;;;2.17;1.90;;;;;;;;;;5103334;28;20213;-65
2021/08/25 14:54:08;;;;;;;2.50;2.30;;;;;;;;;;5100641;28;20229;-65
2021/08/25 14:56:36;;;;;;;4.47;2.23;;;;;;;;;;5100280;28;20583;-65